createdAt,value
2022-08-26T16:18:36.637Z,4.70
2022-08-26T16:21:13.471Z,4.85
2022-08-26T16:23:44.915Z,4.65
2022-08-26T16:26:18.879Z,4.88
2022-08-26T16:28:50.256Z,4.55
2022-08-26T16:31:18.672Z,5.10
2022-08-26T16:33:47.191Z,4.93
2022-08-26T16:36:16.716Z,4.53
2022-08-26T16:38:55.300Z,4.15
2022-08-26T16:41:25.087Z,5.00
2022-08-26T16:43:53.487Z,5.88
2022-08-26T16:46:25.795Z,4.22
2022-08-26T16:48:56.119Z,5.05
2022-08-26T16:51:27.247Z,4.55
2022-08-26T16:53:56.443Z,4.70
2022-08-26T16:56:27.732Z,5.07
2022-08-26T16:59:07.480Z,5.28
2022-08-26T17:01:35.405Z,4.75
2022-08-26T17:04:03.631Z,5.10
2022-08-26T17:07:29.992Z,4.88
2022-08-26T17:10:56.930Z,4.32
2022-08-26T17:14:23.465Z,4.43
2022-08-26T17:17:53.080Z,5.43
2022-08-26T17:21:20.381Z,5.05
2022-08-26T17:24:46.575Z,4.60
2022-08-26T17:28:14.643Z,4.47
2022-08-26T17:31:24.085Z,4.82
2022-08-26T17:34:15.712Z,5.40
2022-08-26T17:36:43.653Z,4.65
2022-08-26T17:39:11.543Z,4.68
2022-08-26T17:41:40.398Z,4.68
2022-08-26T17:44:08.268Z,4.83
2022-08-26T17:46:38.542Z,4.80
2022-08-26T17:49:06.478Z,4.88
2022-08-26T17:51:34.108Z,4.53
2022-08-26T17:54:47.807Z,4.82
2022-08-26T17:57:15.504Z,4.85
2022-08-26T17:59:43.328Z,4.63
2022-08-26T18:02:11.037Z,4.68
2022-08-26T18:04:38.513Z,4.22
2022-08-26T18:07:06.244Z,5.60
2022-08-26T18:09:34.826Z,4.90
2022-08-26T18:12:02.782Z,4.80
2022-08-26T18:14:33.073Z,4.68
2022-08-26T18:17:01.293Z,5.13
2022-08-26T18:19:29.880Z,4.47
2022-08-26T18:21:58.130Z,5.05
2022-08-26T18:24:25.969Z,4.80
2022-08-26T18:26:53.554Z,4.60
2022-08-26T18:29:21.635Z,4.63
2022-08-26T18:31:49.581Z,4.57
2022-08-26T18:34:17.403Z,4.68
2022-08-26T18:36:45.332Z,4.70
2022-08-26T18:39:14.032Z,5.30
2022-08-26T18:41:44.432Z,4.38
2022-08-26T18:44:14.127Z,4.63
2022-08-26T18:46:45.957Z,4.90
2022-08-26T18:49:15.232Z,4.95
2022-08-26T18:51:43.696Z,4.75
2022-08-26T18:54:14.866Z,4.50
2022-08-26T18:56:43.772Z,4.40
2022-08-26T18:59:12.404Z,4.65
2022-08-26T19:02:27.168Z,5.25
2022-08-26T19:05:56.739Z,5.00
2022-08-26T19:09:23.024Z,5.53
2022-08-26T19:12:51.901Z,5.40
2022-08-26T19:16:20.148Z,5.65
2022-08-26T19:19:46.984Z,6.07
2022-08-26T19:22:25.553Z,6.30
2022-08-26T19:25:49.240Z,6.38
2022-08-26T19:32:44.790Z,5.90
2022-08-26T19:36:15.701Z,5.97
2022-08-26T19:39:42.002Z,5.78
2022-08-26T19:43:06.188Z,6.20
2022-08-26T19:46:33.161Z,6.03
2022-08-26T19:49:28.295Z,5.78
2022-08-26T19:51:55.815Z,6.13
2022-08-26T19:54:23.284Z,5.93
2022-08-26T19:56:51.210Z,6.90
2022-08-26T19:59:18.998Z,6.53
2022-08-26T20:02:45.794Z,6.13
2022-08-26T20:06:14.137Z,5.93
2022-08-26T20:09:41.981Z,6.13
2022-08-26T20:13:08.769Z,6.25
2022-08-26T20:16:35.283Z,6.20
2022-08-26T20:20:32.930Z,6.35
2022-08-26T20:24:08.927Z,5.93
2022-08-26T20:27:38.275Z,5.80
2022-08-26T20:31:06.890Z,5.75
2022-08-26T20:34:34.073Z,5.80
2022-08-26T20:38:01.225Z,5.65
2022-08-26T20:41:27.737Z,5.60
2022-08-26T20:44:55.112Z,6.25
2022-08-26T20:48:21.393Z,5.72
2022-08-26T20:51:48.390Z,6.00
2022-08-26T20:55:14.532Z,5.60
2022-08-26T20:58:42.236Z,6.22
2022-08-26T21:02:14.641Z,5.93
2022-08-26T21:05:40.847Z,6.05
2022-08-26T21:09:08.492Z,5.32
2022-08-26T21:12:35.872Z,5.65
2022-08-26T21:16:03.245Z,5.68
2022-08-26T21:19:29.581Z,5.45
2022-08-26T21:22:55.630Z,5.22
2022-08-26T21:26:22.660Z,5.00
2022-08-26T21:29:49.066Z,4.90
2022-08-26T21:33:18.081Z,5.38
2022-08-26T21:36:53.629Z,5.00
2022-08-26T21:40:20.179Z,5.47
2022-08-26T21:43:47.647Z,5.80
2022-08-26T21:47:15.114Z,6.25
2022-08-26T21:50:41.254Z,6.30
2022-08-26T21:54:11.157Z,7.05
2022-08-26T21:57:41.998Z,6.43
2022-08-26T22:01:09.533Z,6.18
2022-08-26T22:04:35.898Z,5.95
2022-08-26T22:08:03.368Z,5.50
2022-08-26T22:11:33.645Z,5.90
2022-08-26T22:15:01.150Z,5.97
2022-08-26T22:18:29.016Z,5.90
2022-08-26T22:21:59.272Z,6.38
2022-08-26T22:25:26.984Z,5.43
2022-08-26T22:28:58.485Z,5.80
2022-08-26T22:32:30.487Z,5.90
2022-08-26T22:35:57.037Z,5.55
2022-08-26T22:39:26.011Z,5.78
2022-08-26T22:42:55.412Z,5.72
2022-08-26T22:46:28.972Z,5.20
2022-08-26T22:49:55.759Z,5.93
2022-08-26T22:53:22.454Z,5.30
2022-08-26T22:56:49.763Z,5.00
2022-08-26T23:00:16.275Z,5.68
2022-08-26T23:03:42.580Z,5.35
2022-08-26T23:07:09.141Z,5.30
2022-08-26T23:10:37.169Z,5.63
2022-08-26T23:14:06.241Z,6.13
2022-08-26T23:17:34.018Z,6.35
2022-08-26T23:21:00.977Z,6.88
2022-08-26T23:24:26.999Z,6.55
2022-08-26T23:27:53.054Z,6.05
2022-08-26T23:31:21.227Z,6.57
2022-08-26T23:34:56.465Z,6.45
2022-08-26T23:38:22.812Z,6.47
2022-08-26T23:41:48.951Z,6.22
2022-08-26T23:45:18.457Z,6.03
2022-08-26T23:48:44.902Z,5.75
2022-08-26T23:52:29.501Z,5.90
2022-08-26T23:55:55.874Z,6.10
2022-08-26T23:59:22.281Z,6.43
